sensor_id;sensor_type;location;lat;lon;timestamp;temperature;humidity
46926;DHT22;32667;48.248;-1.700;2024-03-07T00:01:38;8.50;78.40
46926;DHT22;32667;48.248;-1.700;2024-03-07T00:04:04;8.40;78.50
46926;DHT22;32667;48.248;-1.700;2024-03-07T00:06:30;8.40;78.60
46926;DHT22;32667;48.248;-1.700;2024-03-07T00:08:55;8.40;78.80
46926;DHT22;32667;48.248;-1.700;2024-03-07T00:11:21;8.30;78.80
46926;DHT22;32667;48.248;-1.700;2024-03-07T00:13:49;8.30;78.70
46926;DHT22;32667;48.248;-1.700;2024-03-07T00:16:17;8.30;78.70
46926;DHT22;32667;48.248;-1.700;2024-03-07T00:18:46;8.30;78.70
46926;DHT22;32667;48.248;-1.700;2024-03-07T00:21:11;8.20;78.60
46926;DHT22;32667;48.248;-1.700;2024-03-07T00:23:38;8.20;78.70
46926;DHT22;32667;48.248;-1.700;2024-03-07T00:26:06;8.10;78.70
46926;DHT22;32667;48.248;-1.700;2024-03-07T00:28:35;8.10;78.70
46926;DHT22;32667;48.248;-1.700;2024-03-07T00:31:12;8.10;79.30
46926;DHT22;32667;48.248;-1.700;2024-03-07T00:33:37;8.10;78.60
46926;DHT22;32667;48.248;-1.700;2024-03-07T00:36:03;8.10;78.60
46926;DHT22;32667;48.248;-1.700;2024-03-07T00:38:32;8.10;78.60
46926;DHT22;32667;48.248;-1.700;2024-03-07T00:40:58;8.10;78.70
46926;DHT22;32667;48.248;-1.700;2024-03-07T00:43:24;8.00;78.70
46926;DHT22;32667;48.248;-1.700;2024-03-07T00:45:52;8.00;78.70
46926;DHT22;32667;48.248;-1.700;2024-03-07T00:48:18;8.00;78.70
46926;DHT22;32667;48.248;-1.700;2024-03-07T00:50:51;8.00;78.60
46926;DHT22;32667;48.248;-1.700;2024-03-07T00:53:22;8.00;78.60
46926;DHT22;32667;48.248;-1.700;2024-03-07T00:55:55;8.00;78.60
46926;DHT22;32667;48.248;-1.700;2024-03-07T00:58:23;7.90;78.40
46926;DHT22;32667;48.248;-1.700;2024-03-07T01:00:49;7.90;78.40
46926;DHT22;32667;48.248;-1.700;2024-03-07T01:03:18;7.90;78.60
46926;DHT22;32667;48.248;-1.700;2024-03-07T01:05:44;7.90;78.60
46926;DHT22;32667;48.248;-1.700;2024-03-07T01:08:10;7.80;78.60
46926;DHT22;32667;48.248;-1.700;2024-03-07T01:10:36;7.80;78.60
46926;DHT22;32667;48.248;-1.700;2024-03-07T01:13:02;7.70;78.70
46926;DHT22;32667;48.248;-1.700;2024-03-07T01:15:34;7.70;78.80
46926;DHT22;32667;48.248;-1.700;2024-03-07T01:18:00;7.70;78.80
46926;DHT22;32667;48.248;-1.700;2024-03-07T01:20:25;7.60;78.80
46926;DHT22;32667;48.248;-1.700;2024-03-07T01:22:53;7.60;78.80
46926;DHT22;32667;48.248;-1.700;2024-03-07T01:25:19;7.60;78.80
46926;DHT22;32667;48.248;-1.700;2024-03-07T01:27:49;7.60;78.80
46926;DHT22;32667;48.248;-1.700;2024-03-07T01:30:16;7.60;78.80
46926;DHT22;32667;48.248;-1.700;2024-03-07T01:32:44;7.50;78.70
46926;DHT22;32667;48.248;-1.700;2024-03-07T01:35:10;7.60;78.80
46926;DHT22;32667;48.248;-1.700;2024-03-07T01:37:36;7.50;78.70
46926;DHT22;32667;48.248;-1.700;2024-03-07T01:40:03;7.50;78.70
46926;DHT22;32667;48.248;-1.700;2024-03-07T01:42:30;7.50;78.60
46926;DHT22;32667;48.248;-1.700;2024-03-07T01:44:58;7.50;78.70
46926;DHT22;32667;48.248;-1.700;2024-03-07T01:47:24;7.40;78.70
46926;DHT22;32667;48.248;-1.700;2024-03-07T01:49:51;7.40;78.70
46926;DHT22;32667;48.248;-1.700;2024-03-07T01:52:19;7.30;78.70
46926;DHT22;32667;48.248;-1.700;2024-03-07T01:54:46;7.30;78.80
46926;DHT22;32667;48.248;-1.700;2024-03-07T01:57:12;7.30;78.80
46926;DHT22;32667;48.248;-1.700;2024-03-07T01:59:39;7.20;78.80
46926;DHT22;32667;48.248;-1.700;2024-03-07T02:02:05;7.20;78.80
46926;DHT22;32667;48.248;-1.700;2024-03-07T02:04:35;7.20;78.90
46926;DHT22;32667;48.248;-1.700;2024-03-07T02:07:01;7.20;78.90
46926;DHT22;32667;48.248;-1.700;2024-03-07T02:09:29;7.10;78.90
46926;DHT22;32667;48.248;-1.700;2024-03-07T02:11:55;7.10;79.00
46926;DHT22;32667;48.248;-1.700;2024-03-07T02:14:21;7.10;79.00
46926;DHT22;32667;48.248;-1.700;2024-03-07T02:16:51;7.10;78.90
46926;DHT22;32667;48.248;-1.700;2024-03-07T02:19:17;7.10;79.00
46926;DHT22;32667;48.248;-1.700;2024-03-07T02:21:45;7.00;79.00
46926;DHT22;32667;48.248;-1.700;2024-03-07T02:24:11;7.00;79.00
46926;DHT22;32667;48.248;-1.700;2024-03-07T02:26:36;7.00;79.00
46926;DHT22;32667;48.248;-1.700;2024-03-07T02:29:04;7.00;79.10
46926;DHT22;32667;48.248;-1.700;2024-03-07T02:31:29;7.00;79.10
46926;DHT22;32667;48.248;-1.700;2024-03-07T02:34:05;6.90;79.10
46926;DHT22;32667;48.248;-1.700;2024-03-07T02:36:33;6.90;79.10
46926;DHT22;32667;48.248;-1.700;2024-03-07T02:38:59;6.90;79.10
46926;DHT22;32667;48.248;-1.700;2024-03-07T02:41:25;6.90;79.10
46926;DHT22;32667;48.248;-1.700;2024-03-07T02:43:51;6.90;79.10
46926;DHT22;32667;48.248;-1.700;2024-03-07T02:46:17;6.90;79.10
46926;DHT22;32667;48.248;-1.700;2024-03-07T02:48:45;6.90;79.10
46926;DHT22;32667;48.248;-1.700;2024-03-07T02:51:11;6.80;79.00
46926;DHT22;32667;48.248;-1.700;2024-03-07T02:53:37;6.80;79.10
46926;DHT22;32667;48.248;-1.700;2024-03-07T02:56:04;6.80;79.10
46926;DHT22;32667;48.248;-1.700;2024-03-07T02:58:33;6.80;79.10
46926;DHT22;32667;48.248;-1.700;2024-03-07T03:00:59;6.80;79.10
46926;DHT22;32667;48.248;-1.700;2024-03-07T03:03:29;6.70;79.10
46926;DHT22;32667;48.248;-1.700;2024-03-07T03:05:59;6.70;79.00
46926;DHT22;32667;48.248;-1.700;2024-03-07T03:08:28;6.80;79.10
46926;DHT22;32667;48.248;-1.700;2024-03-07T03:10:55;6.70;79.00
46926;DHT22;32667;48.248;-1.700;2024-03-07T03:13:23;6.70;79.00
46926;DHT22;32667;48.248;-1.700;2024-03-07T03:15:49;6.70;79.00
46926;DHT22;32667;48.248;-1.700;2024-03-07T03:18:14;6.70;79.00
46926;DHT22;32667;48.248;-1.700;2024-03-07T03:20:41;6.70;79.00
46926;DHT22;32667;48.248;-1.700;2024-03-07T03:23:09;6.60;78.90
46926;DHT22;32667;48.248;-1.700;2024-03-07T03:25:39;6.60;78.90
46926;DHT22;32667;48.248;-1.700;2024-03-07T03:28:12;6.60;78.90
46926;DHT22;32667;48.248;-1.700;2024-03-07T03:30:38;6.60;78.90
46926;DHT22;32667;48.248;-1.700;2024-03-07T03:33:05;6.60;78.80
46926;DHT22;32667;48.248;-1.700;2024-03-07T03:35:37;6.60;78.90
46926;DHT22;32667;48.248;-1.700;2024-03-07T03:38:06;6.60;78.90
46926;DHT22;32667;48.248;-1.700;2024-03-07T03:40:32;6.50;78.80
46926;DHT22;32667;48.248;-1.700;2024-03-07T03:43:00;6.50;78.80
46926;DHT22;32667;48.248;-1.700;2024-03-07T03:45:26;6.50;78.80
46926;DHT22;32667;48.248;-1.700;2024-03-07T03:47:52;6.50;78.80
46926;DHT22;32667;48.248;-1.700;2024-03-07T03:50:21;6.50;78.80
46926;DHT22;32667;48.248;-1.700;2024-03-07T03:52:49;6.40;78.80
46926;DHT22;32667;48.248;-1.700;2024-03-07T03:55:15;6.40;78.80
46926;DHT22;32667;48.248;-1.700;2024-03-07T03:57:44;6.40;78.80
46926;DHT22;32667;48.248;-1.700;2024-03-07T04:00:12;6.40;78.90
46926;DHT22;32667;48.248;-1.700;2024-03-07T04:02:47;6.30;78.90
46926;DHT22;32667;48.248;-1.700;2024-03-07T04:05:15;6.30;78.90
46926;DHT22;32667;48.248;-1.700;2024-03-07T04:07:45;6.30;78.90
46926;DHT22;32667;48.248;-1.700;2024-03-07T04:10:15;6.30;78.90
46926;DHT22;32667;48.248;-1.700;2024-03-07T04:12:42;6.30;78.90
46926;DHT22;32667;48.248;-1.700;2024-03-07T04:15:09;6.20;78.90
46926;DHT22;32667;48.248;-1.700;2024-03-07T04:17:38;6.20;78.90
46926;DHT22;32667;48.248;-1.700;2024-03-07T04:20:05;6.20;79.00
46926;DHT22;32667;48.248;-1.700;2024-03-07T04:22:38;6.20;79.00
46926;DHT22;32667;48.248;-1.700;2024-03-07T04:25:07;6.20;78.90
46926;DHT22;32667;48.248;-1.700;2024-03-07T04:27:33;6.20;78.90
46926;DHT22;32667;48.248;-1.700;2024-03-07T04:30:03;6.20;79.00
46926;DHT22;32667;48.248;-1.700;2024-03-07T04:32:32;6.20;79.00
46926;DHT22;32667;48.248;-1.700;2024-03-07T04:35:00;6.20;79.00
46926;DHT22;32667;48.248;-1.700;2024-03-07T04:37:40;6.20;79.10
46926;DHT22;32667;48.248;-1.700;2024-03-07T04:40:08;6.20;79.10
46926;DHT22;32667;48.248;-1.700;2024-03-07T04:42:45;6.10;78.90
46926;DHT22;32667;48.248;-1.700;2024-03-07T04:45:12;6.10;79.00
46926;DHT22;32667;48.248;-1.700;2024-03-07T04:47:42;6.10;79.10
46926;DHT22;32667;48.248;-1.700;2024-03-07T04:50:11;6.10;79.10
46926;DHT22;32667;48.248;-1.700;2024-03-07T04:52:39;6.10;79.10
46926;DHT22;32667;48.248;-1.700;2024-03-07T04:55:08;6.10;79.10
46926;DHT22;32667;48.248;-1.700;2024-03-07T04:57:36;6.10;79.10
46926;DHT22;32667;48.248;-1.700;2024-03-07T05:00:05;6.10;79.00
46926;DHT22;32667;48.248;-1.700;2024-03-07T05:02:31;6.10;79.00
46926;DHT22;32667;48.248;-1.700;2024-03-07T05:04:57;6.10;79.00
46926;DHT22;32667;48.248;-1.700;2024-03-07T05:07:23;6.10;79.00
46926;DHT22;32667;48.248;-1.700;2024-03-07T05:09:49;6.10;78.90
46926;DHT22;32667;48.248;-1.700;2024-03-07T05:12:14;6.10;78.90
46926;DHT22;32667;48.248;-1.700;2024-03-07T05:14:40;6.10;78.90
46926;DHT22;32667;48.248;-1.700;2024-03-07T05:17:06;6.10;78.90
46926;DHT22;32667;48.248;-1.700;2024-03-07T05:19:34;6.10;78.90
46926;DHT22;32667;48.248;-1.700;2024-03-07T05:22:03;6.20;78.90
46926;DHT22;32667;48.248;-1.700;2024-03-07T05:24:34;6.20;78.80
46926;DHT22;32667;48.248;-1.700;2024-03-07T05:27:02;6.20;78.80
46926;DHT22;32667;48.248;-1.700;2024-03-07T05:29:30;6.30;78.80
46926;DHT22;32667;48.248;-1.700;2024-03-07T05:32:22;6.30;78.70
46926;DHT22;32667;48.248;-1.700;2024-03-07T05:34:49;6.30;78.70
46926;DHT22;32667;48.248;-1.700;2024-03-07T05:37:14;6.30;78.70
46926;DHT22;32667;48.248;-1.700;2024-03-07T05:39:40;6.30;78.70
46926;DHT22;32667;48.248;-1.700;2024-03-07T05:42:06;6.30;78.60
46926;DHT22;32667;48.248;-1.700;2024-03-07T05:44:33;6.30;78.60
46926;DHT22;32667;48.248;-1.700;2024-03-07T05:46:58;6.30;78.60
46926;DHT22;32667;48.248;-1.700;2024-03-07T05:49:27;6.30;78.60
46926;DHT22;32667;48.248;-1.700;2024-03-07T05:51:52;6.30;78.60
46926;DHT22;32667;48.248;-1.700;2024-03-07T05:54:18;6.30;78.60
46926;DHT22;32667;48.248;-1.700;2024-03-07T05:56:51;6.30;78.60
46926;DHT22;32667;48.248;-1.700;2024-03-07T05:59:19;6.30;78.60
46926;DHT22;32667;48.248;-1.700;2024-03-07T06:01:48;6.30;78.60
46926;DHT22;32667;48.248;-1.700;2024-03-07T06:04:16;6.30;78.60
46926;DHT22;32667;48.248;-1.700;2024-03-07T06:06:42;6.30;78.60
46926;DHT22;32667;48.248;-1.700;2024-03-07T06:09:09;6.20;78.60
46926;DHT22;32667;48.248;-1.700;2024-03-07T06:11:39;6.20;78.60
46926;DHT22;32667;48.248;-1.700;2024-03-07T06:14:08;6.20;78.70
46926;DHT22;32667;48.248;-1.700;2024-03-07T06:16:36;6.20;78.80
46926;DHT22;32667;48.248;-1.700;2024-03-07T06:19:02;6.20;78.80
46926;DHT22;32667;48.248;-1.700;2024-03-07T06:21:29;6.20;78.80
46926;DHT22;32667;48.248;-1.700;2024-03-07T06:24:05;6.20;78.80
46926;DHT22;32667;48.248;-1.700;2024-03-07T06:26:33;6.20;78.80
46926;DHT22;32667;48.248;-1.700;2024-03-07T06:29:17;6.10;78.80
46926;DHT22;32667;48.248;-1.700;2024-03-07T06:31:45;6.20;78.80
46926;DHT22;32667;48.248;-1.700;2024-03-07T06:34:19;6.20;78.80
46926;DHT22;32667;48.248;-1.700;2024-03-07T06:36:45;6.20;78.80
46926;DHT22;32667;48.248;-1.700;2024-03-07T06:39:10;6.20;78.80
46926;DHT22;32667;48.248;-1.700;2024-03-07T06:41:36;6.20;78.80
46926;DHT22;32667;48.248;-1.700;2024-03-07T06:44:02;6.20;78.60
46926;DHT22;32667;48.248;-1.700;2024-03-07T06:46:28;6.20;78.60
46926;DHT22;32667;48.248;-1.700;2024-03-07T06:48:57;6.20;78.60
46926;DHT22;32667;48.248;-1.700;2024-03-07T06:51:22;6.30;78.60
46926;DHT22;32667;48.248;-1.700;2024-03-07T06:53:50;6.30;78.60
46926;DHT22;32667;48.248;-1.700;2024-03-07T06:56:16;6.20;78.50
46926;DHT22;32667;48.248;-1.700;2024-03-07T06:58:45;6.30;78.60
46926;DHT22;32667;48.248;-1.700;2024-03-07T07:01:21;6.30;78.60
46926;DHT22;32667;48.248;-1.700;2024-03-07T07:03:46;6.30;78.60
46926;DHT22;32667;48.248;-1.700;2024-03-07T07:06:15;6.30;78.50
46926;DHT22;32667;48.248;-1.700;2024-03-07T07:08:41;6.30;78.60
46926;DHT22;32667;48.248;-1.700;2024-03-07T07:11:07;6.30;78.50
46926;DHT22;32667;48.248;-1.700;2024-03-07T07:13:35;6.30;78.50
46926;DHT22;32667;48.248;-1.700;2024-03-07T07:16:02;6.30;78.40
46926;DHT22;32667;48.248;-1.700;2024-03-07T07:18:28;6.30;78.40
46926;DHT22;32667;48.248;-1.700;2024-03-07T07:20:58;6.40;78.50
46926;DHT22;32667;48.248;-1.700;2024-03-07T07:23:24;6.40;78.40
46926;DHT22;32667;48.248;-1.700;2024-03-07T07:25:50;6.40;78.40
46926;DHT22;32667;48.248;-1.700;2024-03-07T07:28:15;6.40;78.30
46926;DHT22;32667;48.248;-1.700;2024-03-07T07:30:45;6.40;78.30
46926;DHT22;32667;48.248;-1.700;2024-03-07T07:33:16;6.50;78.30
46926;DHT22;32667;48.248;-1.700;2024-03-07T07:35:45;6.50;78.80
46926;DHT22;32667;48.248;-1.700;2024-03-07T07:38:13;6.50;78.20
46926;DHT22;32667;48.248;-1.700;2024-03-07T07:40:41;6.50;78.20
46926;DHT22;32667;48.248;-1.700;2024-03-07T07:43:11;6.60;78.20
46926;DHT22;32667;48.248;-1.700;2024-03-07T07:45:39;6.60;78.10
46926;DHT22;32667;48.248;-1.700;2024-03-07T07:48:05;6.60;78.10
46926;DHT22;32667;48.248;-1.700;2024-03-07T07:50:33;6.60;78.00
46926;DHT22;32667;48.248;-1.700;2024-03-07T07:53:00;6.70;78.00
46926;DHT22;32667;48.248;-1.700;2024-03-07T07:55:27;6.70;78.00
46926;DHT22;32667;48.248;-1.700;2024-03-07T07:57:57;6.70;78.00
46926;DHT22;32667;48.248;-1.700;2024-03-07T08:00:27;6.80;78.00
46926;DHT22;32667;48.248;-1.700;2024-03-07T08:03:02;6.90;78.00
46926;DHT22;32667;48.248;-1.700;2024-03-07T08:05:33;7.00;77.90
46926;DHT22;32667;48.248;-1.700;2024-03-07T08:08:03;7.10;77.80
46926;DHT22;32667;48.248;-1.700;2024-03-07T08:10:34;7.20;77.70
46926;DHT22;32667;48.248;-1.700;2024-03-07T08:13:01;7.30;77.60
46926;DHT22;32667;48.248;-1.700;2024-03-07T08:15:29;7.40;77.40
46926;DHT22;32667;48.248;-1.700;2024-03-07T08:17:55;7.50;77.20
46926;DHT22;32667;48.248;-1.700;2024-03-07T08:20:25;7.60;77.00
46926;DHT22;32667;48.248;-1.700;2024-03-07T08:22:54;7.70;76.90
46926;DHT22;32667;48.248;-1.700;2024-03-07T08:25:22;7.80;76.90
46926;DHT22;32667;48.248;-1.700;2024-03-07T08:27:50;7.90;76.70
46926;DHT22;32667;48.248;-1.700;2024-03-07T08:30:16;8.10;76.60
46926;DHT22;32667;48.248;-1.700;2024-03-07T08:32:46;8.20;76.40
46926;DHT22;32667;48.248;-1.700;2024-03-07T08:35:13;8.30;76.20
46926;DHT22;32667;48.248;-1.700;2024-03-07T08:37:43;8.30;76.20
46926;DHT22;32667;48.248;-1.700;2024-03-07T08:40:17;8.30;76.20
46926;DHT22;32667;48.248;-1.700;2024-03-07T08:42:51;8.40;76.30
46926;DHT22;32667;48.248;-1.700;2024-03-07T08:45:17;8.40;76.30
46926;DHT22;32667;48.248;-1.700;2024-03-07T08:47:45;8.40;76.30
46926;DHT22;32667;48.248;-1.700;2024-03-07T08:50:12;8.40;76.40
46926;DHT22;32667;48.248;-1.700;2024-03-07T08:52:39;8.50;76.50
46926;DHT22;32667;48.248;-1.700;2024-03-07T08:55:06;8.50;76.50
46926;DHT22;32667;48.248;-1.700;2024-03-07T08:57:35;8.50;76.40
46926;DHT22;32667;48.248;-1.700;2024-03-07T09:00:08;8.60;76.40
46926;DHT22;32667;48.248;-1.700;2024-03-07T09:02:37;8.70;76.40
46926;DHT22;32667;48.248;-1.700;2024-03-07T09:05:04;8.70;76.30
46926;DHT22;32667;48.248;-1.700;2024-03-07T09:07:32;8.80;76.30
46926;DHT22;32667;48.248;-1.700;2024-03-07T09:09:58;8.90;76.30
46926;DHT22;32667;48.248;-1.700;2024-03-07T09:12:24;8.90;76.20
46926;DHT22;32667;48.248;-1.700;2024-03-07T09:14:51;9.00;76.10
46926;DHT22;32667;48.248;-1.700;2024-03-07T09:17:24;9.00;76.10
46926;DHT22;32667;48.248;-1.700;2024-03-07T09:19:49;9.10;76.10
46926;DHT22;32667;48.248;-1.700;2024-03-07T09:22:18;9.20;76.10
46926;DHT22;32667;48.248;-1.700;2024-03-07T09:24:46;9.20;76.00
46926;DHT22;32667;48.248;-1.700;2024-03-07T09:27:12;9.30;76.00
46926;DHT22;32667;48.248;-1.700;2024-03-07T09:29:42;9.30;76.00
46926;DHT22;32667;48.248;-1.700;2024-03-07T09:32:11;9.40;75.90
46926;DHT22;32667;48.248;-1.700;2024-03-07T09:34:41;9.40;75.80
46926;DHT22;32667;48.248;-1.700;2024-03-07T09:37:09;9.50;75.80
46926;DHT22;32667;48.248;-1.700;2024-03-07T09:39:35;9.50;75.80
46926;DHT22;32667;48.248;-1.700;2024-03-07T09:42:02;9.50;75.80
46926;DHT22;32667;48.248;-1.700;2024-03-07T09:44:28;9.60;75.80
46926;DHT22;32667;48.248;-1.700;2024-03-07T09:46:55;9.60;75.80
46926;DHT22;32667;48.248;-1.700;2024-03-07T09:49:21;9.60;75.80
46926;DHT22;32667;48.248;-1.700;2024-03-07T09:51:50;9.70;75.90
46926;DHT22;32667;48.248;-1.700;2024-03-07T09:54:20;9.70;75.80
46926;DHT22;32667;48.248;-1.700;2024-03-07T09:56:53;9.70;75.80
46926;DHT22;32667;48.248;-1.700;2024-03-07T09:59:20;9.80;75.80
46926;DHT22;32667;48.248;-1.700;2024-03-07T10:01:51;9.90;75.80
46926;DHT22;32667;48.248;-1.700;2024-03-07T10:04:38;9.90;75.60
46926;DHT22;32667;48.248;-1.700;2024-03-07T10:07:08;10.00;75.60
46926;DHT22;32667;48.248;-1.700;2024-03-07T10:09:38;10.10;75.50
46926;DHT22;32667;48.248;-1.700;2024-03-07T10:12:06;10.20;75.40
46926;DHT22;32667;48.248;-1.700;2024-03-07T10:14:35;10.30;75.30
46926;DHT22;32667;48.248;-1.700;2024-03-07T10:17:02;10.30;75.20
46926;DHT22;32667;48.248;-1.700;2024-03-07T10:19:29;10.30;75.20
46926;DHT22;32667;48.248;-1.700;2024-03-07T10:21:57;10.40;75.20
46926;DHT22;32667;48.248;-1.700;2024-03-07T10:24:26;10.50;75.10
46926;DHT22;32667;48.248;-1.700;2024-03-07T10:26:53;10.50;75.10
46926;DHT22;32667;48.248;-1.700;2024-03-07T10:29:22;10.60;75.20
46926;DHT22;32667;48.248;-1.700;2024-03-07T10:31:49;10.60;75.20
46926;DHT22;32667;48.248;-1.700;2024-03-07T10:34:15;10.60;75.20
46926;DHT22;32667;48.248;-1.700;2024-03-07T10:36:43;10.70;75.10
46926;DHT22;32667;48.248;-1.700;2024-03-07T10:39:09;10.70;75.10
46926;DHT22;32667;48.248;-1.700;2024-03-07T10:41:45;10.80;75.10
46926;DHT22;32667;48.248;-1.700;2024-03-07T10:44:23;10.80;75.00
46926;DHT22;32667;48.248;-1.700;2024-03-07T10:46:57;10.80;75.00
46926;DHT22;32667;48.248;-1.700;2024-03-07T10:49:25;10.80;75.10
46926;DHT22;32667;48.248;-1.700;2024-03-07T10:52:18;10.80;75.20
46926;DHT22;32667;48.248;-1.700;2024-03-07T10:54:57;10.80;75.20
46926;DHT22;32667;48.248;-1.700;2024-03-07T10:57:51;10.90;75.20
46926;DHT22;32667;48.248;-1.700;2024-03-07T11:00:26;10.90;75.10
46926;DHT22;32667;48.248;-1.700;2024-03-07T11:02:56;11.00;75.10
46926;DHT22;32667;48.248;-1.700;2024-03-07T11:05:25;11.00;75.60
46926;DHT22;32667;48.248;-1.700;2024-03-07T11:08:01;11.10;75.00
46926;DHT22;32667;48.248;-1.700;2024-03-07T11:10:37;11.10;75.00
46926;DHT22;32667;48.248;-1.700;2024-03-07T11:13:10;11.10;75.00
46926;DHT22;32667;48.248;-1.700;2024-03-07T11:15:43;11.20;75.00
46926;DHT22;32667;48.248;-1.700;2024-03-07T11:18:09;11.20;74.90
46926;DHT22;32667;48.248;-1.700;2024-03-07T11:20:40;11.20;74.90
46926;DHT22;32667;48.248;-1.700;2024-03-07T11:23:27;11.30;75.00
46926;DHT22;32667;48.248;-1.700;2024-03-07T11:26:08;11.40;74.90
46926;DHT22;32667;48.248;-1.700;2024-03-07T11:28:35;11.40;74.80
46926;DHT22;32667;48.248;-1.700;2024-03-07T11:31:26;11.50;74.80
46926;DHT22;32667;48.248;-1.700;2024-03-07T11:34:13;11.60;74.60
46926;DHT22;32667;48.248;-1.700;2024-03-07T11:36:48;11.80;74.40
46926;DHT22;32667;48.248;-1.700;2024-03-07T11:39:53;11.90;74.20
46926;DHT22;32667;48.248;-1.700;2024-03-07T11:42:32;11.90;74.20
46926;DHT22;32667;48.248;-1.700;2024-03-07T11:45:01;12.00;74.20
46926;DHT22;32667;48.248;-1.700;2024-03-07T11:47:38;12.10;74.10
46926;DHT22;32667;48.248;-1.700;2024-03-07T11:50:05;12.20;74.00
46926;DHT22;32667;48.248;-1.700;2024-03-07T11:52:37;12.20;74.00
46926;DHT22;32667;48.248;-1.700;2024-03-07T11:55:10;12.20;73.90
46926;DHT22;32667;48.248;-1.700;2024-03-07T11:57:45;12.30;73.90
46926;DHT22;32667;48.248;-1.700;2024-03-07T12:00:12;12.30;73.80
46926;DHT22;32667;48.248;-1.700;2024-03-07T12:02:39;12.40;73.80
46926;DHT22;32667;48.248;-1.700;2024-03-07T12:05:05;12.40;73.70
46926;DHT22;32667;48.248;-1.700;2024-03-07T12:07:32;12.50;73.80
46926;DHT22;32667;48.248;-1.700;2024-03-07T12:09:59;12.60;73.80
46926;DHT22;32667;48.248;-1.700;2024-03-07T12:12:36;12.60;73.70
46926;DHT22;32667;48.248;-1.700;2024-03-07T12:15:11;12.70;73.70
46926;DHT22;32667;48.248;-1.700;2024-03-07T12:17:46;12.70;73.60
46926;DHT22;32667;48.248;-1.700;2024-03-07T12:20:16;12.80;73.60
46926;DHT22;32667;48.248;-1.700;2024-03-07T12:22:57;12.80;73.60
46926;DHT22;32667;48.248;-1.700;2024-03-07T12:25:25;12.80;73.60
46926;DHT22;32667;48.248;-1.700;2024-03-07T12:28:05;12.80;73.60
46926;DHT22;32667;48.248;-1.700;2024-03-07T12:30:35;12.80;73.70
46926;DHT22;32667;48.248;-1.700;2024-03-07T12:33:03;12.90;73.80
46926;DHT22;32667;48.248;-1.700;2024-03-07T12:35:30;12.90;73.80
46926;DHT22;32667;48.248;-1.700;2024-03-07T12:37:58;13.00;73.80
46926;DHT22;32667;48.248;-1.700;2024-03-07T12:40:26;13.00;73.60
46926;DHT22;32667;48.248;-1.700;2024-03-07T12:42:54;13.10;73.60
46926;DHT22;32667;48.248;-1.700;2024-03-07T12:45:20;13.10;73.50
46926;DHT22;32667;48.248;-1.700;2024-03-07T12:47:51;13.20;73.50
46926;DHT22;32667;48.248;-1.700;2024-03-07T12:50:20;13.30;73.50
46926;DHT22;32667;48.248;-1.700;2024-03-07T12:52:49;13.30;73.40
46926;DHT22;32667;48.248;-1.700;2024-03-07T12:55:16;13.40;73.40
46926;DHT22;32667;48.248;-1.700;2024-03-07T12:57:47;13.40;73.90
46926;DHT22;32667;48.248;-1.700;2024-03-07T13:00:16;13.40;73.30
46926;DHT22;32667;48.248;-1.700;2024-03-07T13:02:53;13.50;73.30
46926;DHT22;32667;48.248;-1.700;2024-03-07T13:05:22;13.50;73.30
46926;DHT22;32667;48.248;-1.700;2024-03-07T13:07:49;13.50;73.40
46926;DHT22;32667;48.248;-1.700;2024-03-07T13:10:15;13.60;73.30
46926;DHT22;32667;48.248;-1.700;2024-03-07T13:12:44;13.70;73.20
46926;DHT22;32667;48.248;-1.700;2024-03-07T13:15:13;13.80;73.10
46926;DHT22;32667;48.248;-1.700;2024-03-07T13:17:41;13.80;73.10
46926;DHT22;32667;48.248;-1.700;2024-03-07T13:20:19;13.80;73.10
46926;DHT22;32667;48.248;-1.700;2024-03-07T13:22:54;13.90;73.20
46926;DHT22;32667;48.248;-1.700;2024-03-07T13:25:25;14.00;73.10
46926;DHT22;32667;48.248;-1.700;2024-03-07T13:30:29;14.40;72.70
46926;DHT22;32667;48.248;-1.700;2024-03-07T13:32:55;14.50;72.40
46926;DHT22;32667;48.248;-1.700;2024-03-07T13:35:22;14.60;72.40
46926;DHT22;32667;48.248;-1.700;2024-03-07T13:37:52;14.60;72.30
46926;DHT22;32667;48.248;-1.700;2024-03-07T13:40:21;14.70;72.50
46926;DHT22;32667;48.248;-1.700;2024-03-07T13:42:58;14.70;72.60
46926;DHT22;32667;48.248;-1.700;2024-03-07T13:45:26;14.70;72.60
46926;DHT22;32667;48.248;-1.700;2024-03-07T13:47:54;14.80;72.50
46926;DHT22;32667;48.248;-1.700;2024-03-07T13:50:27;14.90;72.50
46926;DHT22;32667;48.248;-1.700;2024-03-07T13:53:03;14.90;72.50
46926;DHT22;32667;48.248;-1.700;2024-03-07T14:14:33;14.50;73.20
46926;DHT22;32667;48.248;-1.700;2024-03-07T14:25:25;14.60;73.20
46926;DHT22;32667;48.248;-1.700;2024-03-07T14:30:52;15.00;72.80
46926;DHT22;32667;48.248;-1.700;2024-03-07T14:36:55;15.30;72.30
46926;DHT22;32667;48.248;-1.700;2024-03-07T14:39:24;15.40;72.00
46926;DHT22;32667;48.248;-1.700;2024-03-07T14:42:06;15.50;72.00
46926;DHT22;32667;48.248;-1.700;2024-03-07T14:44:38;15.50;72.00
46926;DHT22;32667;48.248;-1.700;2024-03-07T14:47:08;15.60;71.90
46926;DHT22;32667;48.248;-1.700;2024-03-07T14:49:38;15.60;71.90
46926;DHT22;32667;48.248;-1.700;2024-03-07T14:52:11;15.70;72.00
46926;DHT22;32667;48.248;-1.700;2024-03-07T14:54:38;15.70;72.00
46926;DHT22;32667;48.248;-1.700;2024-03-07T14:57:04;15.70;72.00
46926;DHT22;32667;48.248;-1.700;2024-03-07T14:59:31;15.70;72.00
46926;DHT22;32667;48.248;-1.700;2024-03-07T15:01:57;15.70;72.00
46926;DHT22;32667;48.248;-1.700;2024-03-07T15:04:28;15.60;72.20
46926;DHT22;32667;48.248;-1.700;2024-03-07T15:06:57;15.60;72.40
46926;DHT22;32667;48.248;-1.700;2024-03-07T15:09:42;15.60;72.50
46926;DHT22;32667;48.248;-1.700;2024-03-07T15:12:07;15.60;72.60
46926;DHT22;32667;48.248;-1.700;2024-03-07T15:14:36;15.70;72.50
46926;DHT22;32667;48.248;-1.700;2024-03-07T15:17:06;15.80;72.30
46926;DHT22;32667;48.248;-1.700;2024-03-07T15:19:34;15.90;72.10
46926;DHT22;32667;48.248;-1.700;2024-03-07T15:22:01;16.00;72.10
46926;DHT22;32667;48.248;-1.700;2024-03-07T15:24:28;16.00;72.10
46926;DHT22;32667;48.248;-1.700;2024-03-07T15:26:55;16.00;72.00
46926;DHT22;32667;48.248;-1.700;2024-03-07T15:29:23;15.90;72.10
46926;DHT22;32667;48.248;-1.700;2024-03-07T15:31:49;15.90;72.90
46926;DHT22;32667;48.248;-1.700;2024-03-07T15:34:15;15.80;72.30
46926;DHT22;32667;48.248;-1.700;2024-03-07T15:36:44;15.80;72.50
46926;DHT22;32667;48.248;-1.700;2024-03-07T15:39:15;15.80;72.60
46926;DHT22;32667;48.248;-1.700;2024-03-07T15:41:52;15.80;72.40
46926;DHT22;32667;48.248;-1.700;2024-03-07T15:44:19;15.90;72.50
46926;DHT22;32667;48.248;-1.700;2024-03-07T15:46:45;15.90;72.40
46926;DHT22;32667;48.248;-1.700;2024-03-07T15:49:13;15.80;72.30
46926;DHT22;32667;48.248;-1.700;2024-03-07T15:51:39;15.80;72.50
46926;DHT22;32667;48.248;-1.700;2024-03-07T15:54:04;15.70;72.60
46926;DHT22;32667;48.248;-1.700;2024-03-07T15:56:32;15.70;72.70
46926;DHT22;32667;48.248;-1.700;2024-03-07T15:58:58;15.70;72.90
46926;DHT22;32667;48.248;-1.700;2024-03-07T16:01:26;15.70;72.90
46926;DHT22;32667;48.248;-1.700;2024-03-07T16:04:01;15.60;72.80
46926;DHT22;32667;48.248;-1.700;2024-03-07T16:06:31;15.60;72.80
46926;DHT22;32667;48.248;-1.700;2024-03-07T16:08:56;15.60;73.00
46926;DHT22;32667;48.248;-1.700;2024-03-07T16:11:22;15.60;73.00
46926;DHT22;32667;48.248;-1.700;2024-03-07T16:13:49;15.60;72.90